sensor_id;sensor_type;location;lat;lon;timestamp;temperature;humidity
21417;DHT22;10869;52.238;10.716;2023-05-07T03:04:17;8.40;99.90
21417;DHT22;10869;52.238;10.716;2023-05-07T03:06:42;8.40;99.90
21417;DHT22;10869;52.238;10.716;2023-05-07T03:09:08;8.40;99.90
21417;DHT22;10869;52.238;10.716;2023-05-07T03:11:34;8.40;99.90
21417;DHT22;10869;52.238;10.716;2023-05-07T03:14:01;8.30;99.90
21417;DHT22;10869;52.238;10.716;2023-05-07T03:16:27;8.30;99.90
21417;DHT22;10869;52.238;10.716;2023-05-07T03:18:53;8.20;99.90
21417;DHT22;10869;52.238;10.716;2023-05-07T03:21:18;8.20;99.90
21417;DHT22;10869;52.238;10.716;2023-05-07T03:23:44;8.20;99.90
21417;DHT22;10869;52.238;10.716;2023-05-07T03:26:10;8.30;99.90
21417;DHT22;10869;52.238;10.716;2023-05-07T03:28:37;8.20;99.90
21417;DHT22;10869;52.238;10.716;2023-05-07T03:31:02;8.20;99.90
21417;DHT22;10869;52.238;10.716;2023-05-07T03:33:28;8.30;99.90
21417;DHT22;10869;52.238;10.716;2023-05-07T03:35:54;8.30;99.90
21417;DHT22;10869;52.238;10.716;2023-05-07T03:38:20;8.30;99.90
21417;DHT22;10869;52.238;10.716;2023-05-07T03:40:45;8.30;99.90
21417;DHT22;10869;52.238;10.716;2023-05-07T03:43:11;8.30;99.90
21417;DHT22;10869;52.238;10.716;2023-05-07T03:45:37;8.30;99.90
21417;DHT22;10869;52.238;10.716;2023-05-07T03:48:03;8.30;99.90
21417;DHT22;10869;52.238;10.716;2023-05-07T03:50:28;8.30;99.90
21417;DHT22;10869;52.238;10.716;2023-05-07T03:52:54;8.30;99.90
21417;DHT22;10869;52.238;10.716;2023-05-07T03:55:20;8.30;99.90
21417;DHT22;10869;52.238;10.716;2023-05-07T03:57:46;8.30;99.90
21417;DHT22;10869;52.238;10.716;2023-05-07T04:00:12;8.30;99.90
21417;DHT22;10869;52.238;10.716;2023-05-07T04:02:38;8.20;99.90
21417;DHT22;10869;52.238;10.716;2023-05-07T04:05:04;8.20;99.90
21417;DHT22;10869;52.238;10.716;2023-05-07T04:07:30;8.20;99.90
21417;DHT22;10869;52.238;10.716;2023-05-07T04:13:17;8.20;99.90
21417;DHT22;10869;52.238;10.716;2023-05-07T04:15:43;8.30;99.90
21417;DHT22;10869;52.238;10.716;2023-05-07T04:18:09;8.20;99.90
21417;DHT22;10869;52.238;10.716;2023-05-07T04:20:35;8.20;99.90
21417;DHT22;10869;52.238;10.716;2023-05-07T04:23:03;8.30;99.90
21417;DHT22;10869;52.238;10.716;2023-05-07T04:25:29;8.30;99.90
21417;DHT22;10869;52.238;10.716;2023-05-07T04:27:55;8.40;99.90
21417;DHT22;10869;52.238;10.716;2023-05-07T04:30:21;8.40;99.90
21417;DHT22;10869;52.238;10.716;2023-05-07T04:32:46;8.40;99.90
21417;DHT22;10869;52.238;10.716;2023-05-07T04:35:13;8.40;99.90
21417;DHT22;10869;52.238;10.716;2023-05-07T04:37:39;8.40;99.90
21417;DHT22;10869;52.238;10.716;2023-05-07T04:40:06;8.50;99.90
21417;DHT22;10869;52.238;10.716;2023-05-07T04:42:32;8.60;99.90
21417;DHT22;10869;52.238;10.716;2023-05-07T04:44:57;8.60;99.90
21417;DHT22;10869;52.238;10.716;2023-05-07T04:47:23;8.70;99.90
21417;DHT22;10869;52.238;10.716;2023-05-07T04:49:49;8.70;99.90
21417;DHT22;10869;52.238;10.716;2023-05-07T04:52:15;8.80;99.90
21417;DHT22;10869;52.238;10.716;2023-05-07T04:54:41;8.80;99.90
21417;DHT22;10869;52.238;10.716;2023-05-07T04:57:06;8.70;99.90
21417;DHT22;10869;52.238;10.716;2023-05-07T04:59:33;8.60;99.90
21417;DHT22;10869;52.238;10.716;2023-05-07T05:01:58;8.60;99.90
21417;DHT22;10869;52.238;10.716;2023-05-07T05:04:24;8.50;99.90
21417;DHT22;10869;52.238;10.716;2023-05-07T05:06:50;8.60;99.90
21417;DHT22;10869;52.238;10.716;2023-05-07T05:09:15;8.60;99.90
21417;DHT22;10869;52.238;10.716;2023-05-07T05:11:41;8.70;99.90
21417;DHT22;10869;52.238;10.716;2023-05-07T05:14:07;8.70;99.90
21417;DHT22;10869;52.238;10.716;2023-05-07T05:16:33;8.80;99.90
21417;DHT22;10869;52.238;10.716;2023-05-07T05:19:01;8.80;99.90
21417;DHT22;10869;52.238;10.716;2023-05-07T05:21:27;8.70;99.90
21417;DHT22;10869;52.238;10.716;2023-05-07T05:23:52;8.80;99.90
21417;DHT22;10869;52.238;10.716;2023-05-07T05:26:18;8.80;99.90
21417;DHT22;10869;52.238;10.716;2023-05-07T05:28:44;8.80;99.90
21417;DHT22;10869;52.238;10.716;2023-05-07T05:31:10;8.90;99.90
21417;DHT22;10869;52.238;10.716;2023-05-07T05:33:36;8.90;99.90
21417;DHT22;10869;52.238;10.716;2023-05-07T05:36:01;9.00;99.90
21417;DHT22;10869;52.238;10.716;2023-05-07T05:38:27;8.90;99.90
21417;DHT22;10869;52.238;10.716;2023-05-07T05:40:53;9.00;99.90
21417;DHT22;10869;52.238;10.716;2023-05-07T05:43:18;9.10;99.90
21417;DHT22;10869;52.238;10.716;2023-05-07T05:45:44;9.00;99.90
21417;DHT22;10869;52.238;10.716;2023-05-07T05:48:10;9.00;99.90
21417;DHT22;10869;52.238;10.716;2023-05-07T05:50:36;9.00;99.90
21417;DHT22;10869;52.238;10.716;2023-05-07T05:53:02;9.10;99.90
21417;DHT22;10869;52.238;10.716;2023-05-07T05:55:28;9.10;99.90
21417;DHT22;10869;52.238;10.716;2023-05-07T05:57:53;9.20;99.90
21417;DHT22;10869;52.238;10.716;2023-05-07T06:00:19;9.20;99.90
21417;DHT22;10869;52.238;10.716;2023-05-07T06:02:48;9.20;99.90
21417;DHT22;10869;52.238;10.716;2023-05-07T06:05:13;9.30;99.90
21417;DHT22;10869;52.238;10.716;2023-05-07T06:07:40;9.20;99.90
21417;DHT22;10869;52.238;10.716;2023-05-07T06:10:06;9.10;99.90
21417;DHT22;10869;52.238;10.716;2023-05-07T06:12:32;9.00;99.90
21417;DHT22;10869;52.238;10.716;2023-05-07T06:14:58;9.00;99.90
21417;DHT22;10869;52.238;10.716;2023-05-07T06:17:23;9.10;99.90
21417;DHT22;10869;52.238;10.716;2023-05-07T06:19:49;9.20;99.90
21417;DHT22;10869;52.238;10.716;2023-05-07T06:22:21;9.30;99.90
21417;DHT22;10869;52.238;10.716;2023-05-07T06:24:56;9.40;99.90
21417;DHT22;10869;52.238;10.716;2023-05-07T06:27:22;9.50;99.90
21417;DHT22;10869;52.238;10.716;2023-05-07T06:29:48;9.50;99.90
21417;DHT22;10869;52.238;10.716;2023-05-07T06:32:14;9.50;99.90
21417;DHT22;10869;52.238;10.716;2023-05-07T06:34:40;9.50;99.90
21417;DHT22;10869;52.238;10.716;2023-05-07T06:37:07;9.60;99.90
21417;DHT22;10869;52.238;10.716;2023-05-07T06:39:33;9.60;99.90
21417;DHT22;10869;52.238;10.716;2023-05-07T06:42:36;9.80;99.90
21417;DHT22;10869;52.238;10.716;2023-05-07T06:48:01;9.90;99.90
21417;DHT22;10869;52.238;10.716;2023-05-07T06:50:26;9.80;99.90
21417;DHT22;10869;52.238;10.716;2023-05-07T06:52:52;9.70;99.90
21417;DHT22;10869;52.238;10.716;2023-05-07T06:55:18;9.50;99.90
21417;DHT22;10869;52.238;10.716;2023-05-07T07:00:53;9.40;99.90
21417;DHT22;10869;52.238;10.716;2023-05-07T07:03:19;9.50;99.90
21417;DHT22;10869;52.238;10.716;2023-05-07T07:06:00;9.60;99.90
21417;DHT22;10869;52.238;10.716;2023-05-07T07:08:27;9.70;99.90
21417;DHT22;10869;52.238;10.716;2023-05-07T07:10:53;9.60;99.90
21417;DHT22;10869;52.238;10.716;2023-05-07T07:13:18;9.70;99.90
21417;DHT22;10869;52.238;10.716;2023-05-07T07:15:44;9.70;99.90
21417;DHT22;10869;52.238;10.716;2023-05-07T07:18:10;9.50;99.90
21417;DHT22;10869;52.238;10.716;2023-05-07T07:20:36;9.50;99.90
21417;DHT22;10869;52.238;10.716;2023-05-07T07:26:24;9.50;99.90
21417;DHT22;10869;52.238;10.716;2023-05-07T07:28:49;9.60;99.90
21417;DHT22;10869;52.238;10.716;2023-05-07T07:31:15;9.50;99.90
21417;DHT22;10869;52.238;10.716;2023-05-07T07:33:41;9.50;99.90
21417;DHT22;10869;52.238;10.716;2023-05-07T07:36:07;9.60;99.90
21417;DHT22;10869;52.238;10.716;2023-05-07T07:38:33;9.50;99.90
21417;DHT22;10869;52.238;10.716;2023-05-07T07:41:00;9.50;99.90
21417;DHT22;10869;52.238;10.716;2023-05-07T07:43:26;9.70;99.90
21417;DHT22;10869;52.238;10.716;2023-05-07T07:45:52;9.80;99.90
21417;DHT22;10869;52.238;10.716;2023-05-07T07:48:18;10.00;99.90
21417;DHT22;10869;52.238;10.716;2023-05-07T07:50:44;10.10;99.90
21417;DHT22;10869;52.238;10.716;2023-05-07T07:53:10;10.20;99.90
21417;DHT22;10869;52.238;10.716;2023-05-07T07:55:39;10.10;99.90
21417;DHT22;10869;52.238;10.716;2023-05-07T07:58:05;10.10;99.90
21417;DHT22;10869;52.238;10.716;2023-05-07T08:00:31;10.00;99.90
21417;DHT22;10869;52.238;10.716;2023-05-07T08:02:57;10.10;99.90
21417;DHT22;10869;52.238;10.716;2023-05-07T08:05:23;10.10;99.90
21417;DHT22;10869;52.238;10.716;2023-05-07T08:08:07;10.30;99.90
21417;DHT22;10869;52.238;10.716;2023-05-07T08:10:33;10.30;99.90
21417;DHT22;10869;52.238;10.716;2023-05-07T08:13:00;10.20;99.90
21417;DHT22;10869;52.238;10.716;2023-05-07T08:15:26;10.20;99.90
21417;DHT22;10869;52.238;10.716;2023-05-07T08:17:51;10.30;99.90
21417;DHT22;10869;52.238;10.716;2023-05-07T08:27:01;10.90;99.90
21417;DHT22;10869;52.238;10.716;2023-05-07T08:32:49;11.20;99.90
21417;DHT22;10869;52.238;10.716;2023-05-07T08:35:15;11.40;99.90
21417;DHT22;10869;52.238;10.716;2023-05-07T08:37:40;11.60;99.90
21417;DHT22;10869;52.238;10.716;2023-05-07T08:46:52;11.70;99.90
21417;DHT22;10869;52.238;10.716;2023-05-07T08:49:20;11.80;99.90
21417;DHT22;10869;52.238;10.716;2023-05-07T08:51:46;11.90;99.90
21417;DHT22;10869;52.238;10.716;2023-05-07T08:54:16;12.00;99.90
21417;DHT22;10869;52.238;10.716;2023-05-07T08:56:43;12.10;99.90
21417;DHT22;10869;52.238;10.716;2023-05-07T08:59:09;12.10;99.90
21417;DHT22;10869;52.238;10.716;2023-05-07T09:01:35;12.10;99.90
21417;DHT22;10869;52.238;10.716;2023-05-07T09:04:01;12.20;99.90
21417;DHT22;10869;52.238;10.716;2023-05-07T09:06:27;12.30;99.90
21417;DHT22;10869;52.238;10.716;2023-05-07T09:08:54;12.30;99.90
21417;DHT22;10869;52.238;10.716;2023-05-07T09:11:23;12.30;99.90
21417;DHT22;10869;52.238;10.716;2023-05-07T09:13:54;12.40;99.90
21417;DHT22;10869;52.238;10.716;2023-05-07T09:16:21;12.60;99.90
21417;DHT22;10869;52.238;10.716;2023-05-07T09:18:53;12.70;99.90
21417;DHT22;10869;52.238;10.716;2023-05-07T09:21:21;12.80;99.90
21417;DHT22;10869;52.238;10.716;2023-05-07T09:23:52;12.70;99.90
21417;DHT22;10869;52.238;10.716;2023-05-07T09:26:18;12.70;99.90
21417;DHT22;10869;52.238;10.716;2023-05-07T09:32:06;12.90;99.90
21417;DHT22;10869;52.238;10.716;2023-05-07T09:34:34;12.90;99.90
21417;DHT22;10869;52.238;10.716;2023-05-07T09:37:04;13.10;99.90
21417;DHT22;10869;52.238;10.716;2023-05-07T09:39:59;13.40;99.90
21417;DHT22;10869;52.238;10.716;2023-05-07T09:42:26;13.80;99.90
21417;DHT22;10869;52.238;10.716;2023-05-07T09:44:54;13.80;99.90
21417;DHT22;10869;52.238;10.716;2023-05-07T09:47:24;13.40;99.90
21417;DHT22;10869;52.238;10.716;2023-05-07T09:49:56;13.20;99.90
21417;DHT22;10869;52.238;10.716;2023-05-07T09:55:45;12.80;99.90
21417;DHT22;10869;52.238;10.716;2023-05-07T09:58:12;12.70;99.90
21417;DHT22;10869;52.238;10.716;2023-05-07T10:00:41;12.70;99.90
21417;DHT22;10869;52.238;10.716;2023-05-07T10:03:09;12.60;99.90
21417;DHT22;10869;52.238;10.716;2023-05-07T10:05:36;12.50;99.90
21417;DHT22;10869;52.238;10.716;2023-05-07T10:08:04;12.40;99.90
21417;DHT22;10869;52.238;10.716;2023-05-07T10:10:32;12.60;99.90
21417;DHT22;10869;52.238;10.716;2023-05-07T10:19:28;13.10;99.90
21417;DHT22;10869;52.238;10.716;2023-05-07T10:27:12;13.10;99.90
21417;DHT22;10869;52.238;10.716;2023-05-07T10:35:51;13.90;99.90
21417;DHT22;10869;52.238;10.716;2023-05-07T10:41:22;14.40;99.90
21417;DHT22;10869;52.238;10.716;2023-05-07T10:52:35;14.40;99.90
21417;DHT22;10869;52.238;10.716;2023-05-07T10:55:21;14.40;99.90
21417;DHT22;10869;52.238;10.716;2023-05-07T11:03:11;14.20;99.90
21417;DHT22;10869;52.238;10.716;2023-05-07T11:05:42;14.10;99.90
21417;DHT22;10869;52.238;10.716;2023-05-07T11:08:08;14.20;99.90
21417;DHT22;10869;52.238;10.716;2023-05-07T11:10:48;14.30;99.90
21417;DHT22;10869;52.238;10.716;2023-05-07T11:13:17;14.30;99.90
21417;DHT22;10869;52.238;10.716;2023-05-07T11:15:48;14.20;99.90
21417;DHT22;10869;52.238;10.716;2023-05-07T11:18:55;14.10;99.90
21417;DHT22;10869;52.238;10.716;2023-05-07T11:21:43;13.80;99.90
21417;DHT22;10869;52.238;10.716;2023-05-07T11:35:06;13.10;99.90
21417;DHT22;10869;52.238;10.716;2023-05-07T11:41:20;12.80;99.90
21417;DHT22;10869;52.238;10.716;2023-05-07T11:46:43;12.80;99.90
21417;DHT22;10869;52.238;10.716;2023-05-07T11:49:12;12.80;99.90
21417;DHT22;10869;52.238;10.716;2023-05-07T12:38:36;13.90;99.90
21417;DHT22;10869;52.238;10.716;2023-05-07T14:02:10;15.00;99.90
21417;DHT22;10869;52.238;10.716;2023-05-07T14:07:20;14.90;99.90
21417;DHT22;10869;52.238;10.716;2023-05-07T14:15:58;14.70;99.90
21417;DHT22;10869;52.238;10.716;2023-05-07T14:18:26;14.60;99.90
21417;DHT22;10869;52.238;10.716;2023-05-07T14:20:53;14.40;99.90
21417;DHT22;10869;52.238;10.716;2023-05-07T14:23:25;14.30;99.90
21417;DHT22;10869;52.238;10.716;2023-05-07T14:25:55;14.40;99.90
21417;DHT22;10869;52.238;10.716;2023-05-07T14:28:23;14.50;99.90
21417;DHT22;10869;52.238;10.716;2023-05-07T14:30:49;14.50;99.90
21417;DHT22;10869;52.238;10.716;2023-05-07T14:33:15;14.40;99.90
21417;DHT22;10869;52.238;10.716;2023-05-07T14:35:42;14.40;99.90
21417;DHT22;10869;52.238;10.716;2023-05-07T14:38:23;14.50;99.90
21417;DHT22;10869;52.238;10.716;2023-05-07T14:40:49;14.70;99.90
21417;DHT22;10869;52.238;10.716;2023-05-07T14:43:15;14.80;99.90
21417;DHT22;10869;52.238;10.716;2023-05-07T14:45:40;14.80;99.90
21417;DHT22;10869;52.238;10.716;2023-05-07T14:48:09;14.50;99.90
21417;DHT22;10869;52.238;10.716;2023-05-07T14:50:43;14.30;99.90
21417;DHT22;10869;52.238;10.716;2023-05-07T14:56:33;14.50;99.90
21417;DHT22;10869;52.238;10.716;2023-05-07T14:59:00;14.40;99.90
21417;DHT22;10869;52.238;10.716;2023-05-07T15:01:27;14.30;99.90
21417;DHT22;10869;52.238;10.716;2023-05-07T15:03:59;14.20;99.90
21417;DHT22;10869;52.238;10.716;2023-05-07T15:06:25;14.10;99.90
21417;DHT22;10869;52.238;10.716;2023-05-07T15:08:52;14.10;99.90
21417;DHT22;10869;52.238;10.716;2023-05-07T15:11:18;14.10;99.90
21417;DHT22;10869;52.238;10.716;2023-05-07T15:13:44;14.30;99.90
21417;DHT22;10869;52.238;10.716;2023-05-07T15:16:09;14.40;99.90
21417;DHT22;10869;52.238;10.716;2023-05-07T15:18:35;14.40;99.90
21417;DHT22;10869;52.238;10.716;2023-05-07T15:21:04;14.20;99.90
21417;DHT22;10869;52.238;10.716;2023-05-07T15:23:39;13.90;99.90
21417;DHT22;10869;52.238;10.716;2023-05-07T15:26:08;13.80;99.90
21417;DHT22;10869;52.238;10.716;2023-05-07T15:28:36;13.60;99.90
21417;DHT22;10869;52.238;10.716;2023-05-07T15:31:03;13.60;99.90
21417;DHT22;10869;52.238;10.716;2023-05-07T15:33:32;13.60;99.90
21417;DHT22;10869;52.238;10.716;2023-05-07T15:36:04;13.60;99.90
21417;DHT22;10869;52.238;10.716;2023-05-07T15:38:31;13.50;99.90
21417;DHT22;10869;52.238;10.716;2023-05-07T15:43:44;13.70;99.90
21417;DHT22;10869;52.238;10.716;2023-05-07T15:46:17;13.60;99.90
21417;DHT22;10869;52.238;10.716;2023-05-07T15:48:43;13.50;99.90
21417;DHT22;10869;52.238;10.716;2023-05-07T15:51:09;13.40;99.90
21417;DHT22;10869;52.238;10.716;2023-05-07T15:53:48;13.30;99.90
21417;DHT22;10869;52.238;10.716;2023-05-07T15:56:23;13.30;99.90
21417;DHT22;10869;52.238;10.716;2023-05-07T15:58:53;13.20;99.90
21417;DHT22;10869;52.238;10.716;2023-05-07T16:05:19;13.00;99.90
21417;DHT22;10869;52.238;10.716;2023-05-07T16:11:10;12.90;99.90
21417;DHT22;10869;52.238;10.716;2023-05-07T16:17:00;13.00;99.90
21417;DHT22;10869;52.238;10.716;2023-05-07T16:19:37;12.90;99.90
21417;DHT22;10869;52.238;10.716;2023-05-07T16:22:03;12.90;99.90
21417;DHT22;10869;52.238;10.716;2023-05-07T16:24:29;12.80;99.90
21417;DHT22;10869;52.238;10.716;2023-05-07T16:27:02;12.70;99.90
21417;DHT22;10869;52.238;10.716;2023-05-07T16:32:50;12.70;99.90
21417;DHT22;10869;52.238;10.716;2023-05-07T16:38:40;12.60;99.90
21417;DHT22;10869;52.238;10.716;2023-05-07T16:41:06;12.70;99.90
21417;DHT22;10869;52.238;10.716;2023-05-07T16:43:32;12.70;99.90
21417;DHT22;10869;52.238;10.716;2023-05-07T16:46:00;12.50;99.90
21417;DHT22;10869;52.238;10.716;2023-05-07T16:48:56;12.50;99.90
21417;DHT22;10869;52.238;10.716;2023-05-07T16:51:29;12.60;99.90
21417;DHT22;10869;52.238;10.716;2023-05-07T16:53:55;12.50;99.90
21417;DHT22;10869;52.238;10.716;2023-05-07T16:56:21;12.50;99.90
21417;DHT22;10869;52.238;10.716;2023-05-07T16:58:55;12.40;99.90
21417;DHT22;10869;52.238;10.716;2023-05-07T17:01:21;12.40;99.90
21417;DHT22;10869;52.238;10.716;2023-05-07T17:03:48;12.30;99.90
21417;DHT22;10869;52.238;10.716;2023-05-07T17:06:16;12.20;99.90
21417;DHT22;10869;52.238;10.716;2023-05-07T17:12:09;12.10;99.90
21417;DHT22;10869;52.238;10.716;2023-05-07T17:18:16;12.10;99.90
21417;DHT22;10869;52.238;10.716;2023-05-07T17:24:05;12.00;99.90
21417;DHT22;10869;52.238;10.716;2023-05-07T17:26:31;11.90;99.90
21417;DHT22;10869;52.238;10.716;2023-05-07T17:28:59;11.80;99.90
21417;DHT22;10869;52.238;10.716;2023-05-07T17:31:25;11.80;99.90
21417;DHT22;10869;52.238;10.716;2023-05-07T17:33:51;11.80;99.90
21417;DHT22;10869;52.238;10.716;2023-05-07T17:36:22;11.80;99.90
21417;DHT22;10869;52.238;10.716;2023-05-07T17:38:48;11.80;99.90
21417;DHT22;10869;52.238;10.716;2023-05-07T17:44:36;11.80;99.90
21417;DHT22;10869;52.238;10.716;2023-05-07T17:47:02;11.80;99.90
21417;DHT22;10869;52.238;10.716;2023-05-07T17:49:28;11.70;99.90
21417;DHT22;10869;52.238;10.716;2023-05-07T17:51:54;11.70;99.90
21417;DHT22;10869;52.238;10.716;2023-05-07T17:54:20;11.60;99.90
21417;DHT22;10869;52.238;10.716;2023-05-07T17:56:48;11.60;99.90
21417;DHT22;10869;52.238;10.716;2023-05-07T17:59:14;11.50;99.90
21417;DHT22;10869;52.238;10.716;2023-05-07T18:01:43;11.50;99.90
21417;DHT22;10869;52.238;10.716;2023-05-07T18:07:31;11.40;99.90
21417;DHT22;10869;52.238;10.716;2023-05-07T18:09:57;11.30;99.90
21417;DHT22;10869;52.238;10.716;2023-05-07T18:15:46;11.10;99.90
21417;DHT22;10869;52.238;10.716;2023-05-07T18:18:13;11.00;99.90
21417;DHT22;10869;52.238;10.716;2023-05-07T18:20:40;11.00;99.90
21417;DHT22;10869;52.238;10.716;2023-05-07T18:23:11;10.90;99.90
21417;DHT22;10869;52.238;10.716;2023-05-07T18:25:41;10.90;99.90
21417;DHT22;10869;52.238;10.716;2023-05-07T18:28:29;10.90;99.90
21417;DHT22;10869;52.238;10.716;2023-05-07T18:30:55;10.80;99.90
21417;DHT22;10869;52.238;10.716;2023-05-07T18:33:21;10.80;99.90
21417;DHT22;10869;52.238;10.716;2023-05-07T18:35:47;10.70;99.90
21417;DHT22;10869;52.238;10.716;2023-05-07T18:38:13;10.60;99.90
21417;DHT22;10869;52.238;10.716;2023-05-07T19:47:58;9.80;99.90
21417;DHT22;10869;52.238;10.716;2023-05-07T19:53:47;9.60;99.90
21417;DHT22;10869;52.238;10.716;2023-05-07T19:56:12;9.60;99.90
21417;DHT22;10869;52.238;10.716;2023-05-07T19:58:39;9.60;99.90
21417;DHT22;10869;52.238;10.716;2023-05-07T20:01:05;9.50;99.90
21417;DHT22;10869;52.238;10.716;2023-05-07T20:03:32;9.40;99.90
21417;DHT22;10869;52.238;10.716;2023-05-07T20:09:20;9.40;99.90
21417;DHT22;10869;52.238;10.716;2023-05-07T20:11:46;9.40;99.90
21417;DHT22;10869;52.238;10.716;2023-05-07T20:17:34;9.30;99.90
21417;DHT22;10869;52.238;10.716;2023-05-07T20:19:59;9.20;99.90
21417;DHT22;10869;52.238;10.716;2023-05-07T20:25:48;9.20;99.90
21417;DHT22;10869;52.238;10.716;2023-05-07T20:28:15;9.10;99.90
21417;DHT22;10869;52.238;10.716;2023-05-07T20:34:06;9.10;99.90
21417;DHT22;10869;52.238;10.716;2023-05-07T20:36:32;9.10;99.90
21417;DHT22;10869;52.238;10.716;2023-05-07T20:38:58;9.00;99.90
21417;DHT22;10869;52.238;10.716;2023-05-07T20:41:24;9.00;99.90
21417;DHT22;10869;52.238;10.716;2023-05-07T20:43:50;9.00;99.90
21417;DHT22;10869;52.238;10.716;2023-05-07T20:46:16;9.00;99.90
21417;DHT22;10869;52.238;10.716;2023-05-07T20:48:43;9.10;99.90
21417;DHT22;10869;52.238;10.716;2023-05-07T20:51:09;9.00;99.90
21417;DHT22;10869;52.238;10.716;2023-05-07T20:53:37;9.00;99.90
21417;DHT22;10869;52.238;10.716;2023-05-07T20:56:07;9.00;99.90
21417;DHT22;10869;52.238;10.716;2023-05-07T20:58:35;8.90;99.90
21417;DHT22;10869;52.238;10.716;2023-05-07T21:01:03;8.90;99.90
21417;DHT22;10869;52.238;10.716;2023-05-07T21:03:30;8.80;99.90
21417;DHT22;10869;52.238;10.716;2023-05-07T21:05:56;8.80;99.90
21417;DHT22;10869;52.238;10.716;2023-05-07T21:08:24;9.00;99.90
21417;DHT22;10869;52.238;10.716;2023-05-07T21:10:51;9.00;99.90
21417;DHT22;10869;52.238;10.716;2023-05-07T21:13:17;9.00;99.90
21417;DHT22;10869;52.238;10.716;2023-05-07T21:15:43;8.90;99.90
21417;DHT22;10869;52.238;10.716;2023-05-07T21:18:10;8.80;99.90
21417;DHT22;10869;52.238;10.716;2023-05-07T21:20:36;8.80;99.90
21417;DHT22;10869;52.238;10.716;2023-05-07T21:23:02;8.80;99.90
21417;DHT22;10869;52.238;10.716;2023-05-07T21:25:28;8.80;99.90
21417;DHT22;10869;52.238;10.716;2023-05-07T21:27:54;8.80;99.90
21417;DHT22;10869;52.238;10.716;2023-05-07T21:30:20;8.80;99.90
21417;DHT22;10869;52.238;10.716;2023-05-07T21:32:46;8.90;99.90
21417;DHT22;10869;52.238;10.716;2023-05-07T21:35:12;8.90;99.90
21417;DHT22;10869;52.238;10.716;2023-05-07T21:37:38;8.90;99.90
21417;DHT22;10869;52.238;10.716;2023-05-07T21:40:04;8.90;99.90
21417;DHT22;10869;52.238;10.716;2023-05-07T21:42:30;8.90;99.90
21417;DHT22;10869;52.238;10.716;2023-05-07T21:44:56;8.90;99.90
21417;DHT22;10869;52.238;10.716;2023-05-07T21:47:22;9.00;99.90
21417;DHT22;10869;52.238;10.716;2023-05-07T21:49:48;8.90;99.90
21417;DHT22;10869;52.238;10.716;2023-05-07T21:52:14;8.80;99.90
21417;DHT22;10869;52.238;10.716;2023-05-07T21:54:41;8.80;99.90
21417;DHT22;10869;52.238;10.716;2023-05-07T21:57:07;8.70;99.90
21417;DHT22;10869;52.238;10.716;2023-05-07T21:59:32;8.80;99.90
21417;DHT22;10869;52.238;10.716;2023-05-07T22:01:59;8.70;99.90
21417;DHT22;10869;52.238;10.716;2023-05-07T22:04:25;8.60;99.90
21417;DHT22;10869;52.238;10.716;2023-05-07T22:10:13;8.70;99.90
21417;DHT22;10869;52.238;10.716;2023-05-07T22:12:39;8.60;99.90
21417;DHT22;10869;52.238;10.716;2023-05-07T22:15:05;8.60;99.90
21417;DHT22;10869;52.238;10.716;2023-05-07T22:17:31;8.60;99.90
21417;DHT22;10869;52.238;10.716;2023-05-07T22:19:56;8.50;99.90
21417;DHT22;10869;52.238;10.716;2023-05-07T22:22:22;8.50;99.90
21417;DHT22;10869;52.238;10.716;2023-05-07T22:24:48;8.50;99.90
21417;DHT22;10869;52.238;10.716;2023-05-07T22:27:14;8.50;99.90
21417;DHT22;10869;52.238;10.716;2023-05-07T22:29:39;8.50;99.90
21417;DHT22;10869;52.238;10.716;2023-05-07T22:32:05;8.50;99.90
21417;DHT22;10869;52.238;10.716;2023-05-07T22:34:31;8.50;99.90
21417;DHT22;10869;52.238;10.716;2023-05-07T22:36:57;8.40;99.90
21417;DHT22;10869;52.238;10.716;2023-05-07T22:39:23;8.50;99.90
21417;DHT22;10869;52.238;10.716;2023-05-07T22:41:48;8.50;99.90
21417;DHT22;10869;52.238;10.716;2023-05-07T22:44:14;8.50;99.90
21417;DHT22;10869;52.238;10.716;2023-05-07T22:46:40;8.50;99.90
21417;DHT22;10869;52.238;10.716;2023-05-07T22:49:06;8.50;99.90
21417;DHT22;10869;52.238;10.716;2023-05-07T22:51:32;8.50;99.90
21417;DHT22;10869;52.238;10.716;2023-05-07T22:53:58;8.50;99.90
21417;DHT22;10869;52.238;10.716;2023-05-07T22:56:23;8.50;99.90
21417;DHT22;10869;52.238;10.716;2023-05-07T22:58:49;8.50;99.90
